Time;durP1;ratioP1;P1;durP2;ratioP2;P2;SDS_P1;SDS_P2;PMS_P1;PMS_P2;Temp;Humidity;BMP_temperature;BMP_pressure;BME280_temperature;BME280_humidity;BME280_pressure;Samples;Min_cycle;Max_cycle;Signal;HPM_P1;HPM_P2
2021/07/24 00:00:52;;;;;;;14.80;9.33;;;18.20;99.90;;;;;;5075478;28;20605;-75
2021/07/24 00:03:19;;;;;;;14.27;8.93;;;18.20;99.90;;;;;;5075790;28;20226;-75
2021/07/24 00:05:46;;;;;;;13.67;9.33;;;18.20;99.90;;;;;;5075177;28;20310;-75
2021/07/24 00:08:13;;;;;;;16.73;9.60;;;18.10;99.90;;;;;;5075325;28;20294;-75
2021/07/24 00:10:40;;;;;;;16.20;9.37;;;18.00;99.90;;;;;;5072658;28;20298;-75
2021/07/24 00:13:06;;;;;;;15.53;10.10;;;17.90;99.90;;;;;;5074598;28;20290;-75
2021/07/24 00:15:35;;;;;;;17.30;9.80;;;17.90;99.90;;;;;;5074392;28;20277;-75
2021/07/24 00:18:02;;;;;;;13.60;9.60;;;17.90;99.90;;;;;;5074980;28;20188;-76
2021/07/24 00:20:29;;;;;;;17.33;9.13;;;17.90;99.90;;;;;;5075499;28;20198;-75
2021/07/24 00:22:55;;;;;;;14.37;10.27;;;17.80;99.90;;;;;;5075806;28;20197;-75
2021/07/24 00:25:22;;;;;;;14.67;9.80;;;17.70;99.90;;;;;;5075220;28;20219;-76
2021/07/24 00:27:49;;;;;;;18.37;9.87;;;17.70;99.90;;;;;;5075148;28;20278;-75
2021/07/24 00:30:16;;;;;;;13.27;9.57;;;17.70;99.90;;;;;;5075198;28;20234;-75
2021/07/24 00:32:44;;;;;;;14.00;9.90;;;17.70;99.90;;;;;;5075008;28;20639;-75
2021/07/24 00:35:12;;;;;;;15.57;10.53;;;17.60;99.90;;;;;;5074825;28;20223;-75
2021/07/24 00:37:39;;;;;;;18.60;9.73;;;17.50;99.90;;;;;;5075061;28;20196;-75
2021/07/24 00:40:06;;;;;;;15.37;10.33;;;17.50;99.90;;;;;;5074781;28;20291;-76
2021/07/24 00:42:34;;;;;;;14.50;9.40;;;17.50;99.90;;;;;;5074520;28;20192;-76
2021/07/24 00:45:03;;;;;;;15.00;10.27;;;17.50;99.90;;;;;;5075053;28;20202;-75
2021/07/24 00:47:35;;;;;;;14.53;10.00;;;17.50;99.90;;;;;;5069583;28;20215;-75
2021/07/24 00:50:03;;;;;;;14.77;9.80;;;17.50;99.90;;;;;;5072183;28;20205;-75
2021/07/24 00:52:30;;;;;;;14.50;9.77;;;17.50;99.90;;;;;;5074796;28;20183;-75
2021/07/24 00:54:58;;;;;;;17.33;10.20;;;17.40;99.90;;;;;;5074634;28;20187;-75
2021/07/24 00:57:25;;;;;;;14.93;9.83;;;17.40;99.90;;;;;;5074541;28;20280;-75
2021/07/24 00:59:52;;;;;;;15.40;10.43;;;17.30;99.90;;;;;;5074437;28;20202;-75
2021/07/24 01:02:19;;;;;;;14.60;10.27;;;17.30;99.90;;;;;;5071787;28;20223;-75
2021/07/24 01:04:46;;;;;;;15.63;10.40;;;17.20;99.90;;;;;;5073956;28;20282;-76
2021/07/24 01:07:15;;;;;;;17.93;11.50;;;17.20;99.90;;;;;;5071566;28;20247;-76
2021/07/24 01:09:42;;;;;;;18.40;11.70;;;17.20;99.90;;;;;;5074301;28;20267;-75
2021/07/24 01:12:09;;;;;;;19.70;11.30;;;17.20;99.90;;;;;;5074114;28;20223;-75
2021/07/24 01:14:37;;;;;;;15.63;10.63;;;17.10;99.90;;;;;;5074672;28;20282;-75
2021/07/24 01:17:04;;;;;;;18.10;11.90;;;17.10;99.90;;;;;;5074399;28;20201;-75
2021/07/24 01:19:31;;;;;;;18.00;11.17;;;17.10;99.90;;;;;;5074363;28;20201;-75
2021/07/24 01:21:59;;;;;;;21.07;12.27;;;17.00;99.90;;;;;;5074436;28;20279;-75
2021/07/24 01:24:26;;;;;;;17.90;12.07;;;17.00;99.90;;;;;;5074112;28;20195;-75
2021/07/24 01:26:53;;;;;;;18.60;12.00;;;17.00;99.90;;;;;;5074263;28;20318;-75
2021/07/24 01:29:21;;;;;;;21.03;12.47;;;16.90;99.90;;;;;;5074339;28;20278;-75
2021/07/24 01:31:48;;;;;;;25.60;13.53;;;16.90;99.90;;;;;;5074430;28;20273;-75
2021/07/24 01:34:15;;;;;;;22.10;12.27;;;16.80;99.90;;;;;;5074383;28;20191;-75
2021/07/24 01:36:42;;;;;;;19.90;12.50;;;16.80;99.90;;;;;;5073935;28;20357;-76
2021/07/24 01:39:10;;;;;;;19.43;12.53;;;16.80;99.90;;;;;;5086011;28;20195;-76
2021/07/24 01:41:43;;;;;;;24.30;13.17;;;16.80;99.90;;;;;;5073682;28;20663;-75
2021/07/24 01:44:10;;;;;;;20.13;12.93;;;16.80;99.90;;;;;;5073634;28;20279;-75
2021/07/24 01:46:37;;;;;;;19.83;13.07;;;16.80;99.90;;;;;;5073772;28;20247;-75
2021/07/24 01:49:14;;;;;;;20.70;12.63;;;16.80;99.90;;;;;;5074013;28;20191;-75
2021/07/24 01:54:37;;;;;;;19.90;12.20;;;16.90;99.90;;;;;;5073828;28;20198;-76
2021/07/24 01:57:09;;;;;;;20.50;12.23;;;16.90;99.90;;;;;;5073973;28;20554;-75
2021/07/24 01:59:42;;;;;;;18.70;12.90;;;16.80;99.90;;;;;;5073752;28;20283;-75
2021/07/24 02:02:10;;;;;;;18.33;13.17;;;16.80;99.90;;;;;;5073860;28;20282;-76
2021/07/24 02:04:40;;;;;;;19.33;11.93;;;16.80;99.90;;;;;;5073813;28;20199;-75
2021/07/24 02:07:10;;;;;;;20.20;12.50;;;16.70;99.90;;;;;;5073598;28;20227;-75
2021/07/24 02:09:38;;;;;;;19.73;12.83;;;16.80;99.90;;;;;;5073880;28;20198;-75
2021/07/24 02:12:06;;;;;;;20.33;12.27;;;16.80;99.90;;;;;;5073797;28;20227;-75
2021/07/24 02:14:34;;;;;;;18.17;11.70;;;16.70;99.90;;;;;;5073031;28;20198;-75
2021/07/24 02:17:01;;;;;;;18.80;12.07;;;16.70;99.90;;;;;;5073455;28;20203;-75
2021/07/24 02:19:31;;;;;;;20.20;12.43;;;16.70;99.90;;;;;;5073320;28;20628;-75
2021/07/24 02:21:58;;;;;;;22.13;12.07;;;16.70;99.90;;;;;;5073469;28;20282;-75
2021/07/24 02:24:25;;;;;;;18.87;11.70;;;16.70;99.90;;;;;;5073164;28;20288;-76
2021/07/24 02:26:53;;;;;;;18.27;12.47;;;16.80;99.90;;;;;;5073173;28;20254;-75
2021/07/24 02:29:20;;;;;;;21.23;11.90;;;16.90;99.90;;;;;;5073101;28;20195;-75
2021/07/24 02:31:47;;;;;;;21.13;13.20;;;16.90;99.90;;;;;;5073176;28;20234;-76
2021/07/24 02:34:14;;;;;;;20.73;12.13;;;16.90;99.90;;;;;;5073007;28;20194;-75
2021/07/24 02:36:41;;;;;;;17.40;11.77;;;16.90;99.90;;;;;;5073297;28;20199;-75
2021/07/24 02:39:08;;;;;;;21.83;12.50;;;16.90;99.90;;;;;;5073419;28;20274;-76
2021/07/24 02:41:35;;;;;;;21.37;13.03;;;16.80;99.90;;;;;;5072769;28;20595;-76
2021/07/24 02:44:03;;;;;;;20.67;12.87;;;16.80;99.90;;;;;;5073250;28;20244;-77
2021/07/24 02:46:30;;;;;;;21.37;12.70;;;16.70;99.90;;;;;;5073006;28;20215;-76
2021/07/24 02:48:57;;;;;;;24.13;13.00;;;16.60;99.90;;;;;;5073095;28;20191;-74
2021/07/24 02:51:24;;;;;;;21.67;12.33;;;16.60;99.90;;;;;;5073163;28;20203;-75
2021/07/24 02:53:51;;;;;;;19.57;13.07;;;16.60;99.90;;;;;;5072755;28;20238;-75
2021/07/24 02:56:17;;;;;;;24.00;13.93;;;16.70;99.90;;;;;;5072689;28;20198;-75
2021/07/24 02:58:44;;;;;;;24.33;13.73;;;16.70;99.90;;;;;;5072919;28;20234;-75
2021/07/24 03:01:13;;;;;;;27.30;13.63;;;16.60;99.90;;;;;;5073047;28;20219;-75
2021/07/24 03:03:39;;;;;;;20.40;13.43;;;16.70;99.90;;;;;;5072667;28;20194;-76
2021/07/24 03:06:06;;;;;;;26.77;14.50;;;16.70;99.90;;;;;;5073078;28;20223;-75
2021/07/24 03:08:33;;;;;;;27.20;13.73;;;16.70;99.90;;;;;;5072679;28;20659;-75
2021/07/24 03:11:00;;;;;;;24.60;12.93;;;16.60;99.90;;;;;;5072843;28;20283;-76
2021/07/24 03:13:27;;;;;;;20.83;13.30;;;16.80;99.90;;;;;;5072728;28;20551;-76
2021/07/24 03:15:54;;;;;;;19.80;13.70;;;16.80;99.90;;;;;;5072920;28;20195;-75
2021/07/24 03:18:22;;;;;;;22.20;13.47;;;16.70;99.90;;;;;;5072893;28;20282;-75
2021/07/24 03:20:49;;;;;;;21.70;13.33;;;16.70;99.90;;;;;;5072392;28;20715;-76
2021/07/24 03:23:16;;;;;;;17.13;12.73;;;16.70;99.90;;;;;;5072685;28;20203;-76
2021/07/24 03:25:42;;;;;;;22.00;13.37;;;16.70;99.90;;;;;;5070579;28;20282;-75
2021/07/24 03:28:09;;;;;;;24.17;13.17;;;16.80;99.90;;;;;;5076310;28;20680;-76
2021/07/24 03:30:38;;;;;;;22.43;13.83;;;16.80;99.90;;;;;;5076188;28;20663;-76
2021/07/24 03:33:05;;;;;;;20.13;13.73;;;16.90;99.90;;;;;;5076248;28;20641;-75
2021/07/24 03:35:34;;;;;;;19.80;13.33;;;16.90;99.90;;;;;;5076456;28;20187;-76
2021/07/24 03:38:03;;;;;;;23.40;13.43;;;16.90;99.90;;;;;;5076522;28;20200;-75
2021/07/24 03:40:30;;;;;;;21.50;13.40;;;16.80;99.90;;;;;;5076127;28;20200;-77
2021/07/24 03:42:57;;;;;;;20.87;13.77;;;16.70;99.90;;;;;;5075962;28;20641;-75
2021/07/24 03:45:24;;;;;;;25.73;14.43;;;16.60;99.90;;;;;;5076172;28;20194;-75
2021/07/24 03:47:51;;;;;;;24.30;14.27;;;16.50;99.90;;;;;;5065393;28;20549;-75
2021/07/24 03:50:18;;;;;;;22.63;14.83;;;16.50;99.90;;;;;;5076092;28;20291;-75
2021/07/24 03:52:46;;;;;;;28.23;15.20;;;16.40;99.90;;;;;;5076105;28;20192;-76
2021/07/24 03:55:13;;;;;;;25.40;15.97;;;16.40;99.90;;;;;;5076247;28;20230;-74
2021/07/24 03:57:40;;;;;;;24.23;15.87;;;16.40;99.90;;;;;;5076224;28;20227;-75
2021/07/24 04:00:08;;;;;;;24.77;15.00;;;16.40;99.90;;;;;;5075610;28;20558;-75
2021/07/24 04:02:38;;;;;;;26.40;15.57;;;16.50;99.90;;;;;;5075573;28;20198;-76
2021/07/24 04:05:05;;;;;;;25.43;15.10;;;16.50;99.90;;;;;;5076426;28;20203;-75
2021/07/24 04:07:34;;;;;;;23.37;14.83;;;16.60;99.90;;;;;;5075633;28;20632;-75
2021/07/24 04:10:02;;;;;;;29.40;15.73;;;16.60;99.90;;;;;;5081380;28;20241;-77
2021/07/24 04:12:31;;;;;;;29.70;14.67;;;16.50;99.90;;;;;;5084587;28;20711;-76
2021/07/24 04:14:59;;;;;;;23.10;14.47;;;16.50;99.90;;;;;;5085034;28;20267;-76
2021/07/24 04:17:26;;;;;;;23.03;14.70;;;16.50;99.90;;;;;;5084987;28;20659;-76
2021/07/24 04:19:55;;;;;;;28.17;15.30;;;16.50;99.90;;;;;;5083845;28;20203;-77
2021/07/24 04:22:22;;;;;;;24.90;15.30;;;16.50;99.90;;;;;;5082953;28;20263;-76
2021/07/24 04:24:49;;;;;;;24.90;14.50;;;16.40;99.90;;;;;;5084438;28;20199;-76
2021/07/24 04:27:17;;;;;;;25.47;14.90;;;16.40;99.90;;;;;;5083864;28;20219;-76
2021/07/24 04:29:44;;;;;;;22.10;14.83;;;16.40;99.90;;;;;;5082819;28;20218;-76
2021/07/24 04:32:11;;;;;;;26.17;14.90;;;16.40;99.90;;;;;;5082466;28;20259;-76
2021/07/24 04:34:38;;;;;;;27.63;15.67;;;16.60;99.90;;;;;;5075084;28;20231;-76
2021/07/24 04:37:05;;;;;;;23.47;14.67;;;16.70;99.90;;;;;;5075059;28;20282;-76
2021/07/24 04:39:32;;;;;;;22.83;13.97;;;16.70;99.90;;;;;;5075789;28;20549;-75
2021/07/24 04:41:59;;;;;;;22.70;14.33;;;16.60;99.90;;;;;;5075263;28;20206;-77
2021/07/24 04:44:27;;;;;;;22.77;14.87;;;16.50;99.90;;;;;;5076406;28;20615;-75
2021/07/24 04:46:54;;;;;;;29.50;15.80;;;16.50;99.90;;;;;;5081645;28;20302;-76
2021/07/24 04:49:21;;;;;;;23.93;14.23;;;16.50;99.90;;;;;;5075181;28;20199;-76
2021/07/24 04:51:48;;;;;;;24.87;14.73;;;16.50;99.90;;;;;;5075357;28;20282;-76
2021/07/24 04:54:16;;;;;;;24.77;14.63;;;16.40;99.90;;;;;;5077655;28;20263;-76
2021/07/24 04:56:43;;;;;;;25.57;14.97;;;16.50;99.90;;;;;;5074928;28;20200;-76
2021/07/24 04:59:10;;;;;;;24.57;14.47;;;16.50;99.90;;;;;;5074844;28;20555;-76
2021/07/24 05:01:38;;;;;;;24.13;13.97;;;16.50;99.90;;;;;;5074782;28;20593;-75
2021/07/24 05:04:05;;;;;;;23.90;14.80;;;16.50;99.90;;;;;;5074191;28;20618;-76
2021/07/24 05:06:32;;;;;;;21.23;14.10;;;16.50;99.90;;;;;;5074926;28;20278;-76
2021/07/24 05:08:59;;;;;;;26.27;13.60;;;16.50;99.90;;;;;;5074463;28;20282;-75
2021/07/24 05:11:26;;;;;;;21.80;13.63;;;16.50;99.90;;;;;;5074755;28;20205;-75
2021/07/24 05:13:53;;;;;;;27.80;15.00;;;16.60;99.90;;;;;;5074636;28;20234;-76
2021/07/24 05:16:20;;;;;;;28.57;14.27;;;16.60;99.90;;;;;;5074489;28;20285;-76
2021/07/24 05:18:48;;;;;;;27.10;14.37;;;16.60;99.90;;;;;;5073974;28;20198;-77
2021/07/24 05:21:18;;;;;;;22.83;13.67;;;16.60;99.90;;;;;;5071589;28;20222;-76
2021/07/24 05:23:45;;;;;;;22.50;14.27;;;16.60;99.90;;;;;;5073420;28;20286;-75
2021/07/24 05:26:15;;;;;;;23.80;14.30;;;16.50;99.90;;;;;;5074116;28;20201;-75
2021/07/24 05:28:43;;;;;;;23.03;13.43;;;16.60;99.90;;;;;;5063307;28;20303;-76
2021/07/24 05:31:17;;;;;;;21.00;13.87;;;16.60;99.90;;;;;;5071592;28;20299;-75
2021/07/24 05:33:44;;;;;;;25.23;14.40;;;16.70;99.90;;;;;;5073890;28;20278;-75
2021/07/24 05:36:12;;;;;;;23.87;13.80;;;16.70;99.90;;;;;;5073240;28;20230;-78
2021/07/24 05:38:39;;;;;;;23.23;14.10;;;16.80;99.90;;;;;;5064799;28;20696;-75
2021/07/24 05:41:06;;;;;;;26.77;14.43;;;16.90;99.90;;;;;;5070233;28;20196;-76
2021/07/24 05:43:33;;;;;;;24.33;14.10;;;16.90;99.90;;;;;;5072349;28;20203;-76
2021/07/24 05:46:01;;;;;;;23.57;13.73;;;16.90;99.90;;;;;;5072161;28;20203;-76
2021/07/24 05:48:28;;;;;;;21.37;13.80;;;16.90;99.90;;;;;;5069639;28;20225;-77
2021/07/24 05:50:55;;;;;;;22.60;13.13;;;17.10;99.90;;;;;;5063546;28;20193;-77
2021/07/24 05:53:24;;;;;;;22.60;13.50;;;17.10;99.90;;;;;;5058851;28;20197;-75
2021/07/24 05:55:50;;;;;;;20.40;13.77;;;17.20;99.90;;;;;;5061902;28;20192;-76
2021/07/24 05:58:17;;;;;;;21.47;13.10;;;17.30;99.90;;;;;;5058290;28;20215;-75
2021/07/24 06:00:44;;;;;;;21.27;13.03;;;17.40;99.90;;;;;;5062472;28;20286;-76
2021/07/24 06:03:11;;;;;;;21.20;13.57;;;17.50;99.90;;;;;;5071943;28;20286;-76
2021/07/24 06:05:38;;;;;;;18.27;12.93;;;17.80;99.90;;;;;;5072264;28;20283;-77
2021/07/24 06:08:05;;;;;;;19.13;12.73;;;18.10;99.90;;;;;;5073791;28;20215;-76
2021/07/24 06:10:33;;;;;;;20.00;12.60;;;18.30;99.90;;;;;;5073387;28;20286;-76
2021/07/24 06:13:00;;;;;;;23.23;13.17;;;18.40;99.90;;;;;;5073664;28;20237;-77
2021/07/24 06:15:27;;;;;;;19.93;12.43;;;18.40;99.90;;;;;;5073791;28;20279;-77
2021/07/24 06:17:54;;;;;;;16.53;11.97;;;18.40;99.90;;;;;;5062635;28;20219;-76
2021/07/24 06:20:21;;;;;;;22.13;13.17;;;18.80;99.90;;;;;;5053463;28;20281;-76
2021/07/24 06:22:48;;;;;;;17.60;12.53;;;19.20;99.90;;;;;;5053415;28;20228;-77
2021/07/24 06:25:15;;;;;;;20.60;13.57;;;19.20;99.90;;;;;;5053485;28;20283;-77
2021/07/24 06:27:44;;;;;;;21.83;13.13;;;19.00;99.90;;;;;;5052926;28;20612;-77
2021/07/24 06:30:12;;;;;;;22.23;13.33;;;19.20;99.90;;;;;;5056184;28;20282;-77
2021/07/24 06:32:39;;;;;;;19.53;12.70;;;19.20;99.90;;;;;;5073324;28;20288;-76
2021/07/24 06:35:06;;;;;;;19.27;13.07;;;19.10;99.90;;;;;;5073173;28;20191;-78
2021/07/24 06:37:33;;;;;;;24.50;12.77;;;19.10;99.90;;;;;;5072462;28;20206;-77
2021/07/24 06:40:00;;;;;;;21.23;13.33;;;19.40;99.90;;;;;;5073266;28;20234;-76
2021/07/24 06:42:27;;;;;;;19.20;13.60;;;19.60;99.90;;;;;;5073176;28;20276;-77
2021/07/24 06:44:55;;;;;;;19.07;12.50;;;19.60;99.90;;;;;;5072964;28;20294;-78
2021/07/24 06:47:22;;;;;;;23.77;13.23;;;19.90;99.90;;;;;;5072778;28;20612;-76
2021/07/24 06:49:49;;;;;;;19.30;13.10;;;20.00;99.90;;;;;;5072885;28;20231;-75
2021/07/24 06:52:16;;;;;;;18.60;14.07;;;19.90;99.90;;;;;;5072816;28;20525;-78
2021/07/24 06:54:43;;;;;;;22.37;13.40;;;20.00;99.90;;;;;;5072678;28;20627;-78
2021/07/24 06:57:10;;;;;;;20.63;13.57;;;20.00;99.90;;;;;;5073235;28;20295;-78
2021/07/24 06:59:37;;;;;;;21.63;13.00;;;19.90;99.90;;;;;;5072529;28;20274;-75
2021/07/24 07:02:09;;;;;;;23.63;12.97;;;20.00;99.90;;;;;;5072617;28;20199;-76
2021/07/24 07:04:36;;;;;;;18.70;13.20;;;20.00;99.90;;;;;;5072839;28;20245;-78
2021/07/24 07:07:04;;;;;;;20.97;13.33;;;19.70;99.90;;;;;;5072845;28;20282;-76
2021/07/24 07:09:31;;;;;;;16.97;12.83;;;19.60;99.90;;;;;;5072231;28;20222;-77
2021/07/24 07:11:58;;;;;;;19.43;13.20;;;19.60;99.90;;;;;;5055591;28;20624;-77
2021/07/24 07:14:25;;;;;;;24.20;13.27;;;19.60;99.90;;;;;;5052932;28;20614;-77
2021/07/24 07:16:52;;;;;;;19.30;13.50;;;19.50;99.90;;;;;;5056804;28;20223;-76
2021/07/24 07:19:21;;;;;;;19.20;13.60;;;19.40;99.90;;;;;;5072602;28;20202;-77
2021/07/24 07:21:49;;;;;;;18.63;12.33;;;19.30;99.90;;;;;;5072653;28;20199;-77
2021/07/24 07:24:16;;;;;;;23.27;13.83;;;19.10;99.90;;;;;;5072668;28;20282;-78
2021/07/24 07:26:44;;;;;;;18.70;13.17;;;19.20;99.90;;;;;;5072536;28;20207;-77
2021/07/24 07:29:10;;;;;;;19.97;13.23;;;19.40;99.90;;;;;;5072438;28;20309;-77
2021/07/24 07:31:38;;;;;;;18.50;12.73;;;19.40;99.90;;;;;;5072655;28;20198;-76
2021/07/24 07:34:05;;;;;;;20.47;13.67;;;19.40;99.90;;;;;;5072050;28;20701;-78
2021/07/24 07:36:33;;;;;;;24.10;14.07;;;19.40;99.90;;;;;;5072473;28;20890;-77
2021/07/24 07:39:00;;;;;;;19.20;13.20;;;19.30;99.90;;;;;;5063244;28;20303;-76
2021/07/24 07:41:27;;;;;;;20.77;12.73;;;19.30;99.90;;;;;;5052625;28;20207;-77
2021/07/24 07:43:54;;;;;;;21.00;13.10;;;19.40;99.90;;;;;;5052017;28;20658;-77
2021/07/24 07:46:21;;;;;;;19.03;13.07;;;19.70;99.90;;;;;;5059800;28;20235;-76
2021/07/24 07:48:48;;;;;;;20.53;12.13;;;19.70;99.90;;;;;;5075399;28;20288;-77
2021/07/24 07:51:15;;;;;;;21.57;13.10;;;19.80;99.90;;;;;;5080798;28;20217;-77
2021/07/24 07:53:44;;;;;;;17.33;12.87;;;19.80;99.90;;;;;;5072474;28;20219;-78
2021/07/24 07:56:11;;;;;;;16.87;12.67;;;20.10;99.90;;;;;;5072301;28;20282;-79
2021/07/24 07:58:38;;;;;;;19.60;13.17;;;20.40;99.90;;;;;;5071893;28;20278;-77
2021/07/24 08:01:11;;;;;;;19.87;12.37;;;20.60;99.90;;;;;;5069589;28;20211;-77
2021/07/24 08:03:38;;;;;;;18.80;13.30;;;20.70;99.90;;;;;;5071045;28;20279;-77
2021/07/24 08:06:05;;;;;;;16.33;12.70;;;20.90;99.90;;;;;;5071628;28;20279;-78
2021/07/24 08:08:32;;;;;;;19.27;12.60;;;21.00;99.90;;;;;;5072264;28;20304;-77
2021/07/24 08:11:00;;;;;;;20.85;12.75;;;21.20;99.90;;;;;;5072059;28;20234;-75
2021/07/24 08:13:27;;;;;;;19.98;13.15;;;21.20;99.90;;;;;;5075310;28;20191;-77
2021/07/24 08:15:54;;;;;;;20.25;13.20;;;21.20;99.90;;;;;;5075402;28;20495;-77
2021/07/24 08:18:21;;;;;;;20.85;13.15;;;21.30;99.90;;;;;;5075699;28;20223;-79
2021/07/24 08:20:48;;;;;;;18.58;12.75;;;21.40;99.90;;;;;;5075630;28;20283;-77
2021/07/24 08:23:15;;;;;;;18.80;13.10;;;21.10;99.90;;;;;;5075370;28;20223;-76
2021/07/24 08:25:43;;;;;;;21.60;13.90;;;21.00;99.90;;;;;;5075131;28;20223;-77
2021/07/24 08:28:11;;;;;;;21.23;13.77;;;20.80;99.90;;;;;;5075378;28;20303;-77
2021/07/24 08:30:39;;;;;;;19.73;13.17;;;21.10;99.90;;;;;;5075494;28;20220;-79
2021/07/24 08:33:06;;;;;;;20.63;12.43;;;21.30;99.90;;;;;;5075756;28;20206;-78
2021/07/24 08:35:33;;;;;;;18.60;13.60;;;21.30;99.90;;;;;;5074988;28;20230;-77
2021/07/24 08:38:00;;;;;;;20.85;13.48;;;21.50;99.90;;;;;;5075149;28;20279;-80
2021/07/24 08:40:26;;;;;;;17.40;13.68;;;21.60;99.90;;;;;;5075192;28;20541;-79
2021/07/24 08:42:53;;;;;;;20.52;13.30;;;21.70;99.90;;;;;;5075022;28;20195;-77
2021/07/24 08:45:22;;;;;;;19.83;13.65;;;21.70;99.90;;;;;;5075266;28;20198;-77
2021/07/24 08:47:49;;;;;;;23.25;13.63;;;21.80;99.90;;;;;;5074837;28;20207;-77
2021/07/24 08:50:17;;;;;;;18.45;12.18;;;22.10;99.90;;;;;;5074872;28;20286;-78
2021/07/24 08:52:51;;;;;;;16.50;12.55;;;22.30;99.90;;;;;;5074823;28;20192;-77
2021/07/24 08:55:21;;;;;;;17.60;13.48;;;22.40;99.90;;;;;;5074356;28;20266;-77
2021/07/24 08:57:51;;;;;;;18.08;12.80;;;22.70;99.90;;;;;;5074266;28;20274;-77
2021/07/24 09:00:21;;;;;;;19.67;13.38;;;22.80;99.90;;;;;;5063861;28;20196;-77
2021/07/24 09:02:51;;;;;;;20.23;14.15;;;23.00;99.90;;;;;;5074892;28;20203;-77
2021/07/24 09:05:19;;;;;;;22.00;14.80;;;23.20;99.90;;;;;;5073268;28;20238;-77
2021/07/24 09:07:47;;;;;;;19.83;14.07;;;23.10;99.90;;;;;;5074410;28;20586;-77
2021/07/24 09:10:15;;;;;;;19.45;14.57;;;23.30;99.90;;;;;;5073777;28;20592;-76
2021/07/24 09:12:43;;;;;;;19.95;15.55;;;23.40;99.90;;;;;;5073543;28;20668;-78
2021/07/24 09:15:12;;;;;;;24.67;16.65;;;23.40;99.90;;;;;;5073758;28;20279;-79
2021/07/24 09:17:39;;;;;;;22.63;15.68;;;23.60;99.90;;;;;;5071065;28;20196;-78
2021/07/24 09:20:08;;;;;;;18.83;14.77;;;23.60;99.90;;;;;;5073632;28;20196;-76
2021/07/24 09:22:36;;;;;;;21.80;14.98;;;23.60;99.90;;;;;;5072916;28;20278;-75
2021/07/24 09:25:12;;;;;;;22.75;15.30;;;23.60;99.90;;;;;;5072770;28;20202;-76
2021/07/24 09:27:40;;;;;;;19.20;14.52;;;23.80;99.90;;;;;;5070306;28;20274;-78
2021/07/24 09:30:08;;;;;;;20.20;14.77;;;23.90;99.90;;;;;;5072150;28;20298;-78
2021/07/24 09:32:35;;;;;;;25.20;15.02;;;24.10;99.90;;;;;;5072605;28;20188;-77
2021/07/24 09:35:02;;;;;;;20.95;14.90;;;23.90;99.90;;;;;;5072054;28;20270;-77
2021/07/24 09:37:33;;;;;;;23.60;13.90;;;23.50;99.90;;;;;;5072366;28;20648;-78
2021/07/24 09:40:20;;;;;;;22.30;13.43;;;23.40;99.90;;;;;;5066852;28;20278;-77
2021/07/24 09:42:47;;;;;;;20.40;13.52;;;23.20;99.90;;;;;;5073225;28;20374;-78
2021/07/24 09:45:14;;;;;;;17.70;12.98;;;23.30;99.90;;;;;;5069619;28;20238;-79
2021/07/24 09:47:41;;;;;;;24.42;13.98;;;23.40;99.90;;;;;;5066531;28;20310;-78
2021/07/24 09:50:13;;;;;;;19.27;13.00;;;23.40;99.90;;;;;;5071507;28;20221;-76
2021/07/24 09:52:48;;;;;;;17.90;12.95;;;23.40;99.90;;;;;;5065827;28;20195;-77
2021/07/24 09:55:23;;;;;;;17.83;12.90;;;23.60;99.90;;;;;;5070592;28;20281;-77
2021/07/24 09:57:51;;;;;;;18.65;13.10;;;23.50;99.90;;;;;;5066788;28;20278;-76
2021/07/24 10:00:27;;;;;;;19.83;13.25;;;23.30;99.90;;;;;;5069216;28;20577;-77
2021/07/24 10:03:02;;;;;;;16.15;13.10;;;23.30;99.90;;;;;;5067063;28;20195;-77
2021/07/24 10:05:36;;;;;;;20.42;13.40;;;23.50;99.90;;;;;;5059057;28;20237;-77
2021/07/24 10:08:07;;;;;;;20.77;12.60;;;23.60;99.90;;;;;;5066976;28;20207;-77
2021/07/24 10:10:39;;;;;;;18.13;12.70;;;23.70;99.90;;;;;;5059806;28;20588;-78
2021/07/24 10:13:09;;;;;;;21.48;12.88;;;23.80;99.90;;;;;;5072398;28;20696;-77
2021/07/24 10:15:38;;;;;;;16.77;12.27;;;23.70;99.90;;;;;;5070607;28;20191;-77
2021/07/24 10:18:06;;;;;;;18.40;12.57;;;24.00;99.90;;;;;;5072327;28;20196;-77
2021/07/24 10:20:36;;;;;;;15.23;12.60;;;24.40;99.90;;;;;;5072210;28;20637;-79
2021/07/24 10:23:03;;;;;;;17.80;12.93;;;24.70;99.90;;;;;;5065624;28;20195;-76
2021/07/24 10:25:37;;;;;;;14.73;12.38;;;24.90;99.90;;;;;;5060955;28;20331;-78
2021/07/24 10:28:05;;;;;;;15.98;12.57;;;25.20;99.90;;;;;;5059392;28;20618;-76
2021/07/24 10:30:33;;;;;;;13.93;11.90;;;25.40;99.90;;;;;;5064527;28;20298;-77
2021/07/24 10:33:01;;;;;;;16.60;12.10;;;25.40;99.90;;;;;;5061013;28;20678;-77
2021/07/24 10:35:38;;;;;;;15.38;12.18;;;25.60;99.90;;;;;;5065862;28;20223;-78
2021/07/24 10:38:32;;;;;;;15.95;12.50;;;25.60;99.90;;;;;;5065640;28;20278;-77
2021/07/24 10:41:39;;;;;;;16.92;12.80;;;25.50;99.90;;;;;;5063453;28;20202;-76
2021/07/24 10:44:06;;;;;;;20.17;12.80;;;25.50;99.90;;;;;;5055832;28;20299;-77
2021/07/24 10:47:13;;;;;;;15.00;12.10;;;25.60;99.90;;;;;;5056265;28;20208;-77
2021/07/24 10:50:00;;;;;;;21.88;13.02;;;25.70;99.90;;;;;;5063733;28;20310;-77
2021/07/24 10:52:47;;;;;;;18.15;13.02;;;25.60;99.90;;;;;;5061264;28;20202;-77
2021/07/24 10:55:17;;;;;;;16.92;12.15;;;25.50;99.90;;;;;;5069298;28;20292;-79
2021/07/24 10:58:06;;;;;;;19.55;13.48;;;25.70;99.90;;;;;;5061860;28;20207;-79
2021/07/24 11:00:35;;;;;;;17.63;13.35;;;25.70;99.90;;;;;;5069985;28;20282;-77
2021/07/24 11:03:02;;;;;;;18.25;13.50;;;25.40;99.90;;;;;;5066354;28;20215;-77
2021/07/24 11:05:30;;;;;;;20.55;13.35;;;25.30;99.90;;;;;;5071319;28;20291;-78
2021/07/24 11:07:58;;;;;;;17.08;13.57;;;25.30;99.90;;;;;;5069170;28;20199;-79
2021/07/24 11:10:25;;;;;;;16.88;13.77;;;25.10;99.90;;;;;;5067479;28;20298;-78
2021/07/24 11:12:52;;;;;;;23.15;13.95;;;25.10;99.90;;;;;;5069434;28;20198;-78
2021/07/24 11:15:41;;;;;;;19.00;13.93;;;24.70;99.90;;;;;;5066543;28;20219;-77
2021/07/24 11:18:22;;;;;;;19.77;14.35;;;24.70;99.90;;;;;;5068004;28;20544;-77
2021/07/24 11:20:49;;;;;;;19.50;14.32;;;24.30;99.90;;;;;;5069212;28;20202;-78
2021/07/24 11:23:16;;;;;;;19.95;14.45;;;24.10;99.90;;;;;;5069169;28;20282;-77
2021/07/24 11:25:46;;;;;;;20.08;14.23;;;23.90;99.90;;;;;;5067477;28;20213;-79
2021/07/24 11:28:21;;;;;;;22.90;14.38;;;23.90;99.90;;;;;;5069057;28;20199;-78
2021/07/24 11:31:02;;;;;;;22.65;14.57;;;23.80;99.90;;;;;;5068192;28;20761;-78
2021/07/24 11:33:30;;;;;;;19.80;14.60;;;23.70;99.90;;;;;;5069388;28;20591;-78
2021/07/24 11:36:03;;;;;;;24.30;15.15;;;23.70;99.90;;;;;;5062166;28;20219;-78
2021/07/24 11:38:31;;;;;;;23.38;14.98;;;23.70;99.90;;;;;;5065142;28;20200;-77
2021/07/24 11:41:09;;;;;;;19.02;15.15;;;23.60;99.90;;;;;;5065235;28;20196;-77
2021/07/24 11:43:37;;;;;;;24.85;15.25;;;23.70;99.90;;;;;;5065101;28;20191;-77
2021/07/24 11:46:08;;;;;;;23.40;15.43;;;23.80;99.90;;;;;;5066021;28;20199;-77
2021/07/24 11:48:38;;;;;;;19.23;14.63;;;23.80;99.90;;;;;;5063051;28;20196;-78
2021/07/24 11:51:07;;;;;;;23.55;14.65;;;23.90;99.90;;;;;;5067897;28;20227;-74
2021/07/24 11:53:35;;;;;;;22.45;15.02;;;23.90;99.90;;;;;;5071025;28;20204;-77
2021/07/24 11:56:02;;;;;;;20.73;14.55;;;23.90;99.90;;;;;;5067188;28;20215;-79
2021/07/24 11:58:30;;;;;;;22.27;15.45;;;24.00;99.90;;;;;;5064587;28;20594;-79
2021/07/24 12:00:59;;;;;;;21.98;15.70;;;23.90;99.90;;;;;;5060598;28;20203;-77
2021/07/24 12:03:28;;;;;;;21.45;14.75;;;23.80;99.90;;;;;;5063032;28;20345;-78
2021/07/24 12:06:01;;;;;;;22.65;15.63;;;23.90;99.90;;;;;;5059876;28;20295;-77
2021/07/24 12:08:30;;;;;;;22.48;15.60;;;23.90;99.90;;;;;;5056964;28;20192;-78
2021/07/24 12:10:58;;;;;;;24.95;14.75;;;24.10;99.90;;;;;;5059171;28;20672;-77
2021/07/24 12:13:27;;;;;;;21.92;15.25;;;23.90;99.90;;;;;;5058155;28;20279;-74
2021/07/24 12:16:03;;;;;;;23.23;15.35;;;24.00;99.90;;;;;;5063263;28;20642;-76
2021/07/24 12:18:38;;;;;;;20.85;14.63;;;24.00;99.90;;;;;;5062338;28;20215;-76
2021/07/24 12:21:10;;;;;;;20.48;15.68;;;24.10;99.90;;;;;;5060772;28;20205;-77
2021/07/24 12:23:43;;;;;;;24.65;16.45;;;24.30;99.90;;;;;;5066609;28;20226;-78
2021/07/24 12:26:15;;;;;;;23.55;15.82;;;24.20;99.90;;;;;;5073108;28;20204;-78
2021/07/24 12:28:43;;;;;;;23.50;15.10;;;24.30;99.90;;;;;;5070964;28;20290;-78
2021/07/24 12:31:18;;;;;;;24.80;15.82;;;24.20;99.90;;;;;;5061322;28;20214;-78
2021/07/24 12:33:48;;;;;;;21.15;14.98;;;24.10;99.90;;;;;;5065702;28;20198;-78
2021/07/24 12:36:15;;;;;;;21.05;15.73;;;24.20;99.90;;;;;;5069690;28;20279;-78
2021/07/24 12:38:42;;;;;;;20.63;14.73;;;24.10;99.90;;;;;;5071030;28;20210;-80